sensor_id;sensor_type;location;lat;lon;timestamp;P1;durP1;ratioP1;P2;durP2;ratioP2
14187;SDS011;7175;51.978;5.330;2023-12-29T00:00:05;23.67;;;21.77;;
14187;SDS011;7175;51.978;5.330;2023-12-29T00:02:33;22.30;;;20.50;;
14187;SDS011;7175;51.978;5.330;2023-12-29T00:05:02;22.27;;;20.47;;
14187;SDS011;7175;51.978;5.330;2023-12-29T00:07:30;23.80;;;21.90;;
14187;SDS011;7175;51.978;5.330;2023-12-29T00:09:58;26.17;;;24.17;;
14187;SDS011;7175;51.978;5.330;2023-12-29T00:12:26;26.57;;;24.57;;
14187;SDS011;7175;51.978;5.330;2023-12-29T00:14:56;26.73;;;24.63;;
14187;SDS011;7175;51.978;5.330;2023-12-29T00:17:24;26.13;;;24.13;;
14187;SDS011;7175;51.978;5.330;2023-12-29T00:19:52;25.67;;;23.67;;
14187;SDS011;7175;51.978;5.330;2023-12-29T00:22:21;26.17;;;24.17;;
14187;SDS011;7175;51.978;5.330;2023-12-29T00:24:50;26.50;;;24.50;;
14187;SDS011;7175;51.978;5.330;2023-12-29T00:27:18;25.63;;;23.63;;
14187;SDS011;7175;51.978;5.330;2023-12-29T00:29:46;25.10;;;23.13;;
14187;SDS011;7175;51.978;5.330;2023-12-29T00:32:15;26.17;;;24.17;;
14187;SDS011;7175;51.978;5.330;2023-12-29T00:34:43;25.90;;;23.90;;
14187;SDS011;7175;51.978;5.330;2023-12-29T00:37:11;25.77;;;23.77;;
14187;SDS011;7175;51.978;5.330;2023-12-29T00:39:39;25.70;;;23.70;;
14187;SDS011;7175;51.978;5.330;2023-12-29T00:42:07;25.60;;;23.60;;
14187;SDS011;7175;51.978;5.330;2023-12-29T00:44:35;25.40;;;23.40;;
14187;SDS011;7175;51.978;5.330;2023-12-29T00:47:03;25.60;;;23.60;;
14187;SDS011;7175;51.978;5.330;2023-12-29T00:49:33;24.87;;;22.87;;
14187;SDS011;7175;51.978;5.330;2023-12-29T00:52:01;24.20;;;22.30;;
14187;SDS011;7175;51.978;5.330;2023-12-29T00:54:29;24.43;;;22.53;;
14187;SDS011;7175;51.978;5.330;2023-12-29T00:56:57;24.53;;;22.63;;
14187;SDS011;7175;51.978;5.330;2023-12-29T00:59:25;24.40;;;22.50;;
14187;SDS011;7175;51.978;5.330;2023-12-29T01:01:53;24.23;;;22.33;;
14187;SDS011;7175;51.978;5.330;2023-12-29T01:04:22;23.70;;;21.80;;
14187;SDS011;7175;51.978;5.330;2023-12-29T01:06:51;24.47;;;22.50;;
14187;SDS011;7175;51.978;5.330;2023-12-29T01:09:20;23.80;;;21.90;;
14187;SDS011;7175;51.978;5.330;2023-12-29T01:11:48;24.60;;;22.60;;
14187;SDS011;7175;51.978;5.330;2023-12-29T01:14:16;24.50;;;22.53;;
14187;SDS011;7175;51.978;5.330;2023-12-29T01:16:44;24.77;;;22.77;;
14187;SDS011;7175;51.978;5.330;2023-12-29T01:19:12;25.23;;;23.23;;
14187;SDS011;7175;51.978;5.330;2023-12-29T01:21:41;25.30;;;23.30;;
14187;SDS011;7175;51.978;5.330;2023-12-29T01:24:10;24.87;;;22.87;;
14187;SDS011;7175;51.978;5.330;2023-12-29T01:26:41;24.93;;;22.93;;
14187;SDS011;7175;51.978;5.330;2023-12-29T01:29:09;24.50;;;22.60;;
14187;SDS011;7175;51.978;5.330;2023-12-29T01:31:37;25.10;;;23.10;;
14187;SDS011;7175;51.978;5.330;2023-12-29T01:34:06;24.90;;;22.90;;
14187;SDS011;7175;51.978;5.330;2023-12-29T01:36:34;25.00;;;23.00;;
14187;SDS011;7175;51.978;5.330;2023-12-29T01:39:02;25.07;;;23.07;;
14187;SDS011;7175;51.978;5.330;2023-12-29T01:41:31;25.53;;;23.53;;
14187;SDS011;7175;51.978;5.330;2023-12-29T01:44:19;25.50;;;23.50;;
14187;SDS011;7175;51.978;5.330;2023-12-29T01:46:49;24.50;;;22.60;;
14187;SDS011;7175;51.978;5.330;2023-12-29T01:49:19;24.90;;;22.90;;
14187;SDS011;7175;51.978;5.330;2023-12-29T01:51:48;25.23;;;23.23;;
14187;SDS011;7175;51.978;5.330;2023-12-29T01:54:18;25.27;;;23.27;;
14187;SDS011;7175;51.978;5.330;2023-12-29T01:56:49;25.00;;;23.00;;
14187;SDS011;7175;51.978;5.330;2023-12-29T01:59:18;25.83;;;23.83;;
14187;SDS011;7175;51.978;5.330;2023-12-29T02:01:52;24.87;;;22.87;;
14187;SDS011;7175;51.978;5.330;2023-12-29T02:04:22;25.13;;;23.13;;
14187;SDS011;7175;51.978;5.330;2023-12-29T02:06:52;25.37;;;23.37;;
14187;SDS011;7175;51.978;5.330;2023-12-29T02:09:20;25.20;;;23.20;;
14187;SDS011;7175;51.978;5.330;2023-12-29T02:11:49;26.40;;;24.30;;
14187;SDS011;7175;51.978;5.330;2023-12-29T02:14:18;27.13;;;25.03;;
14187;SDS011;7175;51.978;5.330;2023-12-29T02:16:52;27.00;;;24.90;;
14187;SDS011;7175;51.978;5.330;2023-12-29T02:19:31;28.03;;;25.83;;
14187;SDS011;7175;51.978;5.330;2023-12-29T02:22:07;29.33;;;27.13;;
14187;SDS011;7175;51.978;5.330;2023-12-29T02:24:37;30.60;;;28.30;;
14187;SDS011;7175;51.978;5.330;2023-12-29T02:27:15;32.63;;;30.23;;
14187;SDS011;7175;51.978;5.330;2023-12-29T02:29:56;33.07;;;30.67;;
14187;SDS011;7175;51.978;5.330;2023-12-29T02:32:38;34.73;;;32.23;;
14187;SDS011;7175;51.978;5.330;2023-12-29T02:35:09;42.53;;;39.63;;
14187;SDS011;7175;51.978;5.330;2023-12-29T02:37:40;50.77;;;47.47;;
14187;SDS011;7175;51.978;5.330;2023-12-29T02:40:10;51.93;;;48.47;;
14187;SDS011;7175;51.978;5.330;2023-12-29T02:42:40;49.90;;;46.60;;
14187;SDS011;7175;51.978;5.330;2023-12-29T02:45:12;47.73;;;44.57;;
14187;SDS011;7175;51.978;5.330;2023-12-29T02:47:41;48.40;;;45.20;;
14187;SDS011;7175;51.978;5.330;2023-12-29T02:50:10;45.83;;;42.73;;
14187;SDS011;7175;51.978;5.330;2023-12-29T02:52:38;47.80;;;44.60;;
14187;SDS011;7175;51.978;5.330;2023-12-29T02:55:07;51.23;;;47.83;;
14187;SDS011;7175;51.978;5.330;2023-12-29T02:57:35;49.77;;;46.47;;
14187;SDS011;7175;51.978;5.330;2023-12-29T03:00:05;45.43;;;42.40;;
14187;SDS011;7175;51.978;5.330;2023-12-29T03:02:34;45.60;;;42.50;;
14187;SDS011;7175;51.978;5.330;2023-12-29T03:05:02;43.47;;;40.57;;
14187;SDS011;7175;51.978;5.330;2023-12-29T03:07:31;41.80;;;39.00;;
14187;SDS011;7175;51.978;5.330;2023-12-29T03:09:59;42.17;;;39.27;;
14187;SDS011;7175;51.978;5.330;2023-12-29T03:12:27;44.43;;;41.43;;
14187;SDS011;7175;51.978;5.330;2023-12-29T03:14:57;43.23;;;40.33;;
14187;SDS011;7175;51.978;5.330;2023-12-29T03:17:26;43.17;;;40.27;;
14187;SDS011;7175;51.978;5.330;2023-12-29T03:19:54;45.23;;;42.23;;
14187;SDS011;7175;51.978;5.330;2023-12-29T03:22:23;46.63;;;43.60;;
14187;SDS011;7175;51.978;5.330;2023-12-29T03:24:51;48.87;;;45.67;;
14187;SDS011;7175;51.978;5.330;2023-12-29T03:27:19;47.63;;;44.53;;
14187;SDS011;7175;51.978;5.330;2023-12-29T03:29:47;52.50;;;49.10;;
14187;SDS011;7175;51.978;5.330;2023-12-29T03:32:15;52.43;;;49.03;;
14187;SDS011;7175;51.978;5.330;2023-12-29T03:34:44;53.57;;;50.07;;
14187;SDS011;7175;51.978;5.330;2023-12-29T03:37:13;55.53;;;51.83;;
14187;SDS011;7175;51.978;5.330;2023-12-29T03:39:41;58.50;;;54.60;;
14187;SDS011;7175;51.978;5.330;2023-12-29T03:42:09;64.47;;;60.07;;
14187;SDS011;7175;51.978;5.330;2023-12-29T03:44:37;67.00;;;62.30;;
14187;SDS011;7175;51.978;5.330;2023-12-29T03:47:05;72.27;;;67.27;;
14187;SDS011;7175;51.978;5.330;2023-12-29T03:49:33;75.07;;;69.87;;
14187;SDS011;7175;51.978;5.330;2023-12-29T03:52:03;80.03;;;74.53;;
14187;SDS011;7175;51.978;5.330;2023-12-29T03:54:31;80.90;;;75.30;;
14187;SDS011;7175;51.978;5.330;2023-12-29T03:57:00;73.47;;;68.37;;
14187;SDS011;7175;51.978;5.330;2023-12-29T03:59:28;69.87;;;65.07;;
14187;SDS011;7175;51.978;5.330;2023-12-29T04:01:56;71.77;;;66.87;;
14187;SDS011;7175;51.978;5.330;2023-12-29T04:04:24;70.10;;;65.20;;
14187;SDS011;7175;51.978;5.330;2023-12-29T04:06:52;69.87;;;64.97;;
14187;SDS011;7175;51.978;5.330;2023-12-29T04:09:22;65.17;;;60.77;;
14187;SDS011;7175;51.978;5.330;2023-12-29T04:11:50;62.60;;;58.40;;
14187;SDS011;7175;51.978;5.330;2023-12-29T04:14:18;61.57;;;57.37;;
14187;SDS011;7175;51.978;5.330;2023-12-29T04:16:46;61.80;;;57.60;;
14187;SDS011;7175;51.978;5.330;2023-12-29T04:19:14;62.83;;;58.63;;
14187;SDS011;7175;51.978;5.330;2023-12-29T04:21:42;61.43;;;57.33;;
14187;SDS011;7175;51.978;5.330;2023-12-29T04:24:10;61.63;;;57.43;;
14187;SDS011;7175;51.978;5.330;2023-12-29T04:26:39;60.00;;;56.00;;
14187;SDS011;7175;51.978;5.330;2023-12-29T04:29:07;57.53;;;53.63;;
14187;SDS011;7175;51.978;5.330;2023-12-29T04:31:35;59.23;;;55.33;;
14187;SDS011;7175;51.978;5.330;2023-12-29T04:34:03;57.03;;;53.23;;
14187;SDS011;7175;51.978;5.330;2023-12-29T04:36:31;53.20;;;49.60;;
14187;SDS011;7175;51.978;5.330;2023-12-29T04:38:59;54.07;;;50.37;;
14187;SDS011;7175;51.978;5.330;2023-12-29T04:41:27;54.53;;;50.83;;
14187;SDS011;7175;51.978;5.330;2023-12-29T04:43:57;54.40;;;50.70;;
14187;SDS011;7175;51.978;5.330;2023-12-29T04:46:25;54.83;;;51.13;;
14187;SDS011;7175;51.978;5.330;2023-12-29T04:48:53;56.37;;;52.57;;
14187;SDS011;7175;51.978;5.330;2023-12-29T04:51:22;54.37;;;50.67;;
14187;SDS011;7175;51.978;5.330;2023-12-29T04:53:50;56.17;;;52.47;;
14187;SDS011;7175;51.978;5.330;2023-12-29T04:56:18;53.13;;;49.63;;
14187;SDS011;7175;51.978;5.330;2023-12-29T04:58:46;53.00;;;49.40;;
14187;SDS011;7175;51.978;5.330;2023-12-29T05:01:15;54.77;;;51.17;;
14187;SDS011;7175;51.978;5.330;2023-12-29T05:03:44;54.63;;;51.03;;
14187;SDS011;7175;51.978;5.330;2023-12-29T05:06:12;51.90;;;48.40;;
14187;SDS011;7175;51.978;5.330;2023-12-29T05:08:40;54.33;;;50.73;;
14187;SDS011;7175;51.978;5.330;2023-12-29T05:11:08;54.47;;;50.87;;
14187;SDS011;7175;51.978;5.330;2023-12-29T05:13:36;55.83;;;52.13;;
14187;SDS011;7175;51.978;5.330;2023-12-29T05:16:05;52.77;;;49.23;;
14187;SDS011;7175;51.978;5.330;2023-12-29T05:18:35;51.23;;;47.73;;
14187;SDS011;7175;51.978;5.330;2023-12-29T05:21:03;52.23;;;48.73;;
14187;SDS011;7175;51.978;5.330;2023-12-29T05:23:31;48.63;;;45.33;;
14187;SDS011;7175;51.978;5.330;2023-12-29T05:25:59;49.00;;;45.70;;
14187;SDS011;7175;51.978;5.330;2023-12-29T05:28:27;50.60;;;47.20;;
14187;SDS011;7175;51.978;5.330;2023-12-29T05:30:55;51.07;;;47.67;;
14187;SDS011;7175;51.978;5.330;2023-12-29T05:33:24;48.70;;;45.40;;
14187;SDS011;7175;51.978;5.330;2023-12-29T05:35:54;48.10;;;44.80;;
14187;SDS011;7175;51.978;5.330;2023-12-29T05:38:22;46.47;;;43.27;;
14187;SDS011;7175;51.978;5.330;2023-12-29T05:40:50;47.50;;;44.30;;
14187;SDS011;7175;51.978;5.330;2023-12-29T05:43:18;46.50;;;43.30;;
14187;SDS011;7175;51.978;5.330;2023-12-29T05:45:46;48.90;;;45.60;;
14187;SDS011;7175;51.978;5.330;2023-12-29T05:48:14;46.60;;;43.40;;
14187;SDS011;7175;51.978;5.330;2023-12-29T05:50:42;47.33;;;44.13;;
14187;SDS011;7175;51.978;5.330;2023-12-29T05:53:12;44.67;;;41.57;;
14187;SDS011;7175;51.978;5.330;2023-12-29T05:55:43;43.70;;;40.60;;
14187;SDS011;7175;51.978;5.330;2023-12-29T05:58:12;43.60;;;40.60;;
14187;SDS011;7175;51.978;5.330;2023-12-29T06:00:40;44.00;;;41.00;;
14187;SDS011;7175;51.978;5.330;2023-12-29T06:03:08;43.67;;;40.67;;
14187;SDS011;7175;51.978;5.330;2023-12-29T06:05:36;43.33;;;40.33;;
14187;SDS011;7175;51.978;5.330;2023-12-29T06:08:04;43.17;;;40.17;;
14187;SDS011;7175;51.978;5.330;2023-12-29T06:10:35;42.47;;;39.47;;
14187;SDS011;7175;51.978;5.330;2023-12-29T06:13:03;43.30;;;40.30;;
14187;SDS011;7175;51.978;5.330;2023-12-29T06:15:32;43.63;;;40.53;;
14187;SDS011;7175;51.978;5.330;2023-12-29T06:18:01;43.30;;;40.20;;
14187;SDS011;7175;51.978;5.330;2023-12-29T06:20:30;42.90;;;39.80;;
14187;SDS011;7175;51.978;5.330;2023-12-29T06:22:58;41.50;;;38.50;;
14187;SDS011;7175;51.978;5.330;2023-12-29T06:25:27;39.67;;;36.77;;
14187;SDS011;7175;51.978;5.330;2023-12-29T06:27:57;42.50;;;39.47;;
14187;SDS011;7175;51.978;5.330;2023-12-29T06:30:25;41.80;;;38.80;;
14187;SDS011;7175;51.978;5.330;2023-12-29T06:32:53;40.27;;;37.37;;
14187;SDS011;7175;51.978;5.330;2023-12-29T06:35:21;40.67;;;37.77;;
14187;SDS011;7175;51.978;5.330;2023-12-29T06:37:49;39.30;;;36.43;;
14187;SDS011;7175;51.978;5.330;2023-12-29T06:40:17;39.87;;;37.00;;
14187;SDS011;7175;51.978;5.330;2023-12-29T06:42:45;38.70;;;35.90;;
14187;SDS011;7175;51.978;5.330;2023-12-29T06:45:15;38.77;;;35.97;;
14187;SDS011;7175;51.978;5.330;2023-12-29T06:47:43;37.93;;;35.13;;
14187;SDS011;7175;51.978;5.330;2023-12-29T06:50:11;39.37;;;36.47;;
14187;SDS011;7175;51.978;5.330;2023-12-29T06:52:39;41.20;;;38.20;;
14187;SDS011;7175;51.978;5.330;2023-12-29T06:55:08;38.60;;;35.70;;
14187;SDS011;7175;51.978;5.330;2023-12-29T06:57:36;39.73;;;36.73;;
14187;SDS011;7175;51.978;5.330;2023-12-29T07:00:05;42.53;;;39.40;;
14187;SDS011;7175;51.978;5.330;2023-12-29T07:02:38;44.73;;;41.43;;
14187;SDS011;7175;51.978;5.330;2023-12-29T07:05:06;47.83;;;44.33;;
14187;SDS011;7175;51.978;5.330;2023-12-29T07:07:35;45.40;;;42.00;;
14187;SDS011;7175;51.978;5.330;2023-12-29T07:10:04;45.47;;;42.07;;
14187;SDS011;7175;51.978;5.330;2023-12-29T07:12:33;45.70;;;42.30;;
14187;SDS011;7175;51.978;5.330;2023-12-29T07:15:01;45.20;;;41.70;;
14187;SDS011;7175;51.978;5.330;2023-12-29T07:17:29;47.27;;;43.57;;
14187;SDS011;7175;51.978;5.330;2023-12-29T07:19:59;47.30;;;43.60;;
14187;SDS011;7175;51.978;5.330;2023-12-29T07:22:28;48.77;;;44.97;;
14187;SDS011;7175;51.978;5.330;2023-12-29T07:24:57;48.57;;;44.67;;
14187;SDS011;7175;51.978;5.330;2023-12-29T07:27:25;51.50;;;47.30;;
14187;SDS011;7175;51.978;5.330;2023-12-29T07:29:53;51.90;;;47.60;;
14187;SDS011;7175;51.978;5.330;2023-12-29T07:32:21;50.47;;;46.07;;
14187;SDS011;7175;51.978;5.330;2023-12-29T07:34:49;55.60;;;50.90;;
14187;SDS011;7175;51.978;5.330;2023-12-29T07:37:18;55.53;;;50.73;;
14187;SDS011;7175;51.978;5.330;2023-12-29T07:39:46;55.50;;;50.80;;
14187;SDS011;7175;51.978;5.330;2023-12-29T07:42:14;53.73;;;49.07;;
14187;SDS011;7175;51.978;5.330;2023-12-29T07:44:43;55.47;;;50.77;;
14187;SDS011;7175;51.978;5.330;2023-12-29T07:47:11;54.77;;;50.17;;
14187;SDS011;7175;51.978;5.330;2023-12-29T07:49:41;52.53;;;48.03;;
14187;SDS011;7175;51.978;5.330;2023-12-29T07:52:09;54.83;;;50.23;;
14187;SDS011;7175;51.978;5.330;2023-12-29T07:54:39;55.20;;;50.60;;
14187;SDS011;7175;51.978;5.330;2023-12-29T07:57:07;62.47;;;57.47;;
14187;SDS011;7175;51.978;5.330;2023-12-29T07:59:35;63.27;;;58.27;;
14187;SDS011;7175;51.978;5.330;2023-12-29T08:02:04;56.27;;;51.60;;
14187;SDS011;7175;51.978;5.330;2023-12-29T08:04:32;56.87;;;52.17;;
14187;SDS011;7175;51.978;5.330;2023-12-29T08:07:01;58.40;;;53.60;;
14187;SDS011;7175;51.978;5.330;2023-12-29T08:09:29;51.37;;;46.93;;
14187;SDS011;7175;51.978;5.330;2023-12-29T08:11:59;54.27;;;49.67;;
14187;SDS011;7175;51.978;5.330;2023-12-29T08:14:27;53.53;;;49.07;;
14187;SDS011;7175;51.978;5.330;2023-12-29T08:16:55;54.67;;;50.07;;
14187;SDS011;7175;51.978;5.330;2023-12-29T08:19:24;59.03;;;54.03;;
14187;SDS011;7175;51.978;5.330;2023-12-29T08:21:52;57.67;;;52.87;;
14187;SDS011;7175;51.978;5.330;2023-12-29T08:24:20;51.30;;;46.90;;
14187;SDS011;7175;51.978;5.330;2023-12-29T08:26:49;48.53;;;44.23;;
14187;SDS011;7175;51.978;5.330;2023-12-29T08:29:18;49.37;;;44.87;;
14187;SDS011;7175;51.978;5.330;2023-12-29T08:31:46;46.20;;;41.90;;
14187;SDS011;7175;51.978;5.330;2023-12-29T08:34:14;44.93;;;40.83;;
14187;SDS011;7175;51.978;5.330;2023-12-29T08:36:45;44.70;;;40.60;;
14187;SDS011;7175;51.978;5.330;2023-12-29T08:39:13;46.80;;;42.60;;
14187;SDS011;7175;51.978;5.330;2023-12-29T08:41:41;45.47;;;41.30;;
14187;SDS011;7175;51.978;5.330;2023-12-29T08:44:09;44.33;;;40.23;;
14187;SDS011;7175;51.978;5.330;2023-12-29T08:46:38;42.07;;;38.10;;
14187;SDS011;7175;51.978;5.330;2023-12-29T08:49:06;42.87;;;38.97;;
14187;SDS011;7175;51.978;5.330;2023-12-29T08:51:35;41.90;;;38.10;;
14187;SDS011;7175;51.978;5.330;2023-12-29T08:54:03;38.17;;;34.67;;
14187;SDS011;7175;51.978;5.330;2023-12-29T08:56:31;37.23;;;33.80;;
14187;SDS011;7175;51.978;5.330;2023-12-29T08:58:59;37.97;;;34.47;;
14187;SDS011;7175;51.978;5.330;2023-12-29T09:01:27;37.87;;;34.37;;
14187;SDS011;7175;51.978;5.330;2023-12-29T09:03:56;38.43;;;34.93;;
14187;SDS011;7175;51.978;5.330;2023-12-29T09:06:24;37.27;;;33.77;;
14187;SDS011;7175;51.978;5.330;2023-12-29T09:08:53;37.53;;;34.00;;
14187;SDS011;7175;51.978;5.330;2023-12-29T09:11:21;35.27;;;31.87;;
14187;SDS011;7175;51.978;5.330;2023-12-29T09:13:49;36.97;;;33.47;;
14187;SDS011;7175;51.978;5.330;2023-12-29T09:16:17;37.17;;;33.77;;
14187;SDS011;7175;51.978;5.330;2023-12-29T09:18:45;35.20;;;31.90;;
14187;SDS011;7175;51.978;5.330;2023-12-29T09:21:14;35.80;;;32.50;;
14187;SDS011;7175;51.978;5.330;2023-12-29T09:23:43;33.83;;;30.63;;
14187;SDS011;7175;51.978;5.330;2023-12-29T09:26:13;34.17;;;30.97;;
14187;SDS011;7175;51.978;5.330;2023-12-29T09:28:41;34.23;;;31.03;;
14187;SDS011;7175;51.978;5.330;2023-12-29T09:31:11;33.10;;;30.00;;
14187;SDS011;7175;51.978;5.330;2023-12-29T09:33:39;33.77;;;30.67;;
14187;SDS011;7175;51.978;5.330;2023-12-29T09:36:08;32.83;;;29.73;;
14187;SDS011;7175;51.978;5.330;2023-12-29T09:38:37;32.03;;;29.03;;
14187;SDS011;7175;51.978;5.330;2023-12-29T09:41:13;32.37;;;29.37;;
14187;SDS011;7175;51.978;5.330;2023-12-29T09:43:42;33.23;;;30.13;;
14187;SDS011;7175;51.978;5.330;2023-12-29T09:46:12;33.70;;;30.60;;
14187;SDS011;7175;51.978;5.330;2023-12-29T09:48:44;31.90;;;28.90;;
14187;SDS011;7175;51.978;5.330;2023-12-29T09:51:14;32.13;;;29.03;;
14187;SDS011;7175;51.978;5.330;2023-12-29T09:53:44;32.47;;;29.37;;
14187;SDS011;7175;51.978;5.330;2023-12-29T09:56:12;35.07;;;31.77;;
14187;SDS011;7175;51.978;5.330;2023-12-29T09:58:41;34.00;;;30.80;;
14187;SDS011;7175;51.978;5.330;2023-12-29T10:01:11;34.83;;;31.63;;
14187;SDS011;7175;51.978;5.330;2023-12-29T10:03:39;35.00;;;31.80;;
14187;SDS011;7175;51.978;5.330;2023-12-29T10:06:07;32.27;;;29.23;;
14187;SDS011;7175;51.978;5.330;2023-12-29T10:08:38;31.43;;;28.53;;
14187;SDS011;7175;51.978;5.330;2023-12-29T10:11:13;29.00;;;26.20;;
14187;SDS011;7175;51.978;5.330;2023-12-29T10:13:42;29.10;;;26.20;;
14187;SDS011;7175;51.978;5.330;2023-12-29T10:16:15;28.70;;;25.90;;
14187;SDS011;7175;51.978;5.330;2023-12-29T10:18:54;28.23;;;25.43;;
14187;SDS011;7175;51.978;5.330;2023-12-29T10:21:31;30.37;;;27.47;;
14187;SDS011;7175;51.978;5.330;2023-12-29T10:24:10;28.77;;;25.97;;
14187;SDS011;7175;51.978;5.330;2023-12-29T10:26:44;29.10;;;26.30;;
14187;SDS011;7175;51.978;5.330;2023-12-29T10:29:12;29.43;;;26.63;;
14187;SDS011;7175;51.978;5.330;2023-12-29T10:31:43;31.60;;;28.60;;
14187;SDS011;7175;51.978;5.330;2023-12-29T10:34:17;32.40;;;29.40;;
14187;SDS011;7175;51.978;5.330;2023-12-29T10:36:47;29.73;;;26.90;;
14187;SDS011;7175;51.978;5.330;2023-12-29T10:39:17;29.80;;;26.90;;
14187;SDS011;7175;51.978;5.330;2023-12-29T10:41:45;27.60;;;24.90;;
14187;SDS011;7175;51.978;5.330;2023-12-29T10:44:14;28.30;;;25.60;;
14187;SDS011;7175;51.978;5.330;2023-12-29T10:46:42;30.40;;;27.50;;
14187;SDS011;7175;51.978;5.330;2023-12-29T10:49:10;29.93;;;27.13;;
14187;SDS011;7175;51.978;5.330;2023-12-29T10:51:39;29.63;;;26.83;;
14187;SDS011;7175;51.978;5.330;2023-12-29T10:54:08;28.77;;;25.97;;
14187;SDS011;7175;51.978;5.330;2023-12-29T10:56:47;30.97;;;28.07;;
14187;SDS011;7175;51.978;5.330;2023-12-29T10:59:27;30.17;;;27.27;;
14187;SDS011;7175;51.978;5.330;2023-12-29T11:01:56;28.93;;;26.13;;
14187;SDS011;7175;51.978;5.330;2023-12-29T11:04:24;27.70;;;25.00;;
14187;SDS011;7175;51.978;5.330;2023-12-29T11:06:52;28.00;;;25.30;;
14187;SDS011;7175;51.978;5.330;2023-12-29T11:09:26;26.27;;;23.67;;
14187;SDS011;7175;51.978;5.330;2023-12-29T11:11:58;26.27;;;23.67;;
14187;SDS011;7175;51.978;5.330;2023-12-29T11:14:27;27.07;;;24.47;;
14187;SDS011;7175;51.978;5.330;2023-12-29T11:16:56;27.73;;;25.13;;
14187;SDS011;7175;51.978;5.330;2023-12-29T11:19:25;28.10;;;25.40;;
14187;SDS011;7175;51.978;5.330;2023-12-29T11:21:54;28.20;;;25.60;;
14187;SDS011;7175;51.978;5.330;2023-12-29T11:24:23;28.10;;;25.50;;
14187;SDS011;7175;51.978;5.330;2023-12-29T11:27:04;29.00;;;26.30;;
14187;SDS011;7175;51.978;5.330;2023-12-29T11:29:34;27.47;;;24.90;;
14187;SDS011;7175;51.978;5.330;2023-12-29T11:32:03;27.63;;;25.03;;
14187;SDS011;7175;51.978;5.330;2023-12-29T11:34:35;27.00;;;24.50;;
14187;SDS011;7175;51.978;5.330;2023-12-29T11:37:11;27.50;;;24.90;;
14187;SDS011;7175;51.978;5.330;2023-12-29T11:39:52;27.87;;;25.27;;
14187;SDS011;7175;51.978;5.330;2023-12-29T11:42:27;27.37;;;24.87;;
14187;SDS011;7175;51.978;5.330;2023-12-29T11:44:59;26.03;;;23.63;;
14187;SDS011;7175;51.978;5.330;2023-12-29T11:47:53;26.23;;;23.77;;
14187;SDS011;7175;51.978;5.330;2023-12-29T11:50:30;26.40;;;23.93;;
14187;SDS011;7175;51.978;5.330;2023-12-29T11:52:59;26.17;;;23.70;;
14187;SDS011;7175;51.978;5.330;2023-12-29T11:55:28;25.77;;;23.37;;
14187;SDS011;7175;51.978;5.330;2023-12-29T11:57:59;26.27;;;23.87;;
14187;SDS011;7175;51.978;5.330;2023-12-29T12:00:40;26.73;;;24.23;;
14187;SDS011;7175;51.978;5.330;2023-12-29T12:03:14;26.20;;;23.70;;
14187;SDS011;7175;51.978;5.330;2023-12-29T12:05:48;27.03;;;24.53;;
14187;SDS011;7175;51.978;5.330;2023-12-29T12:08:29;28.23;;;25.73;;
14187;SDS011;7175;51.978;5.330;2023-12-29T12:14:01;26.70;;;24.20;;
14187;SDS011;7175;51.978;5.330;2023-12-29T12:16:48;26.63;;;24.13;;
14187;SDS011;7175;51.978;5.330;2023-12-29T12:19:19;27.37;;;24.80;;
14187;SDS011;7175;51.978;5.330;2023-12-29T12:21:50;27.00;;;24.50;;
14187;SDS011;7175;51.978;5.330;2023-12-29T12:24:22;26.87;;;24.37;;
14187;SDS011;7175;51.978;5.330;2023-12-29T12:26:52;26.63;;;24.13;;
14187;SDS011;7175;51.978;5.330;2023-12-29T12:29:21;25.57;;;23.17;;
14187;SDS011;7175;51.978;5.330;2023-12-29T12:31:53;25.57;;;23.17;;
14187;SDS011;7175;51.978;5.330;2023-12-29T12:34:22;24.53;;;22.13;;
14187;SDS011;7175;51.978;5.330;2023-12-29T12:36:51;25.37;;;22.97;;
14187;SDS011;7175;51.978;5.330;2023-12-29T12:39:23;24.87;;;22.47;;
14187;SDS011;7175;51.978;5.330;2023-12-29T12:41:51;24.77;;;22.37;;
14187;SDS011;7175;51.978;5.330;2023-12-29T12:44:19;24.87;;;22.47;;
14187;SDS011;7175;51.978;5.330;2023-12-29T12:46:50;25.27;;;22.87;;
14187;SDS011;7175;51.978;5.330;2023-12-29T12:49:23;24.77;;;22.37;;
14187;SDS011;7175;51.978;5.330;2023-12-29T12:51:52;24.93;;;22.47;;
14187;SDS011;7175;51.978;5.330;2023-12-29T12:54:21;25.17;;;22.67;;
14187;SDS011;7175;51.978;5.330;2023-12-29T12:56:49;25.07;;;22.57;;
14187;SDS011;7175;51.978;5.330;2023-12-29T12:59:17;25.77;;;23.27;;
14187;SDS011;7175;51.978;5.330;2023-12-29T13:01:46;25.67;;;23.17;;
14187;SDS011;7175;51.978;5.330;2023-12-29T13:04:16;24.70;;;22.30;;
14187;SDS011;7175;51.978;5.330;2023-12-29T13:06:45;24.83;;;22.43;;
14187;SDS011;7175;51.978;5.330;2023-12-29T13:09:17;25.20;;;22.73;;
14187;SDS011;7175;51.978;5.330;2023-12-29T13:11:46;26.23;;;23.73;;
14187;SDS011;7175;51.978;5.330;2023-12-29T13:14:20;26.73;;;24.13;;
14187;SDS011;7175;51.978;5.330;2023-12-29T13:16:49;25.73;;;23.23;;
14187;SDS011;7175;51.978;5.330;2023-12-29T13:19:19;25.53;;;23.13;;
14187;SDS011;7175;51.978;5.330;2023-12-29T13:21:52;26.00;;;23.50;;
14187;SDS011;7175;51.978;5.330;2023-12-29T13:24:22;26.20;;;23.70;;
14187;SDS011;7175;51.978;5.330;2023-12-29T13:26:52;26.00;;;23.50;;
14187;SDS011;7175;51.978;5.330;2023-12-29T13:29:23;26.00;;;23.50;;
14187;SDS011;7175;51.978;5.330;2023-12-29T13:31:56;26.57;;;24.07;;
14187;SDS011;7175;51.978;5.330;2023-12-29T13:34:31;26.83;;;24.33;;
14187;SDS011;7175;51.978;5.330;2023-12-29T13:37:10;27.07;;;24.50;;
14187;SDS011;7175;51.978;5.330;2023-12-29T13:39:51;27.43;;;24.83;;
14187;SDS011;7175;51.978;5.330;2023-12-29T13:42:22;27.63;;;25.03;;
14187;SDS011;7175;51.978;5.330;2023-12-29T13:44:54;27.73;;;25.13;;
14187;SDS011;7175;51.978;5.330;2023-12-29T13:47:23;28.40;;;25.80;;
14187;SDS011;7175;51.978;5.330;2023-12-29T13:49:53;27.97;;;25.37;;
14187;SDS011;7175;51.978;5.330;2023-12-29T13:52:22;28.17;;;25.57;;
14187;SDS011;7175;51.978;5.330;2023-12-29T13:54:50;28.67;;;26.07;;
14187;SDS011;7175;51.978;5.330;2023-12-29T13:57:21;29.53;;;26.83;;
14187;SDS011;7175;51.978;5.330;2023-12-29T13:59:57;30.33;;;27.63;;
14187;SDS011;7175;51.978;5.330;2023-12-29T14:02:41;31.30;;;28.50;;
14187;SDS011;7175;51.978;5.330;2023-12-29T14:05:19;32.77;;;29.97;;
14187;SDS011;7175;51.978;5.330;2023-12-29T14:07:52;32.27;;;29.40;;
14187;SDS011;7175;51.978;5.330;2023-12-29T14:10:28;32.93;;;30.03;;
14187;SDS011;7175;51.978;5.330;2023-12-29T14:13:03;33.93;;;30.97;;
14187;SDS011;7175;51.978;5.330;2023-12-29T14:15:34;35.10;;;32.10;;
14187;SDS011;7175;51.978;5.330;2023-12-29T14:18:04;34.87;;;31.87;;
14187;SDS011;7175;51.978;5.330;2023-12-29T14:20:43;33.60;;;30.60;;
14187;SDS011;7175;51.978;5.330;2023-12-29T14:23:11;36.30;;;33.10;;
14187;SDS011;7175;51.978;5.330;2023-12-29T14:25:40;36.97;;;33.77;;
14187;SDS011;7175;51.978;5.330;2023-12-29T14:28:13;34.33;;;31.23;;
14187;SDS011;7175;51.978;5.330;2023-12-29T14:30:43;35.17;;;31.97;;
14187;SDS011;7175;51.978;5.330;2023-12-29T14:33:11;36.33;;;33.03;;
14187;SDS011;7175;51.978;5.330;2023-12-29T14:35:39;39.97;;;36.37;;
14187;SDS011;7175;51.978;5.330;2023-12-29T14:38:09;43.90;;;40.00;;
14187;SDS011;7175;51.978;5.330;2023-12-29T14:40:44;38.17;;;34.77;;
14187;SDS011;7175;51.978;5.330;2023-12-29T14:43:12;42.73;;;38.93;;
14187;SDS011;7175;51.978;5.330;2023-12-29T14:45:40;51.23;;;46.83;;
14187;SDS011;7175;51.978;5.330;2023-12-29T14:48:08;41.90;;;38.20;;
14187;SDS011;7175;51.978;5.330;2023-12-29T14:50:37;44.90;;;41.00;;